Time;durP1;ratioP1;P1;durP2;ratioP2;P2;SDS_P1;SDS_P2;PMS_P1;PMS_P2;Temp;Humidity;BMP_temperature;BMP_pressure;BME280_temperature;BME280_humidity;BME280_pressure;Samples;Min_cycle;Max_cycle;Signal;HPM_P1;HPM_P2
2023/02/06 00:01:26;;;;;;;6.57;2.28;;;16.50;40.30;;;;;;5115973;28;20213;-75
2023/02/06 00:03:53;;;;;;;5.65;2.20;;;16.50;40.30;;;;;;5115414;28;20190;-71
2023/02/06 00:06:20;;;;;;;6.60;1.83;;;16.50;40.30;;;;;;5115397;28;20213;-74
2023/02/06 00:08:47;;;;;;;6.53;2.10;;;16.50;40.30;;;;;;5115881;28;20230;-74
2023/02/06 00:11:16;;;;;;;6.22;2.13;;;16.50;40.30;;;;;;5115711;28;20186;-75
2023/02/06 00:13:44;;;;;;;4.32;2.15;;;16.50;40.30;;;;;;5115795;28;20264;-74
2023/02/06 00:16:21;;;;;;;7.43;2.30;;;16.50;40.30;;;;;;5115353;28;20209;-75
2023/02/06 00:18:49;;;;;;;8.93;2.42;;;16.50;40.30;;;;;;5114865;28;20213;-74
2023/02/06 00:21:19;;;;;;;5.78;2.20;;;16.50;40.30;;;;;;5115507;28;20247;-75
2023/02/06 00:23:46;;;;;;;5.85;1.90;;;16.50;40.30;;;;;;5115389;28;20263;-75
2023/02/06 00:26:13;;;;;;;5.68;2.40;;;16.50;40.30;;;;;;5115132;28;20286;-75
2023/02/06 00:28:40;;;;;;;5.43;2.15;;;16.50;40.20;;;;;;5115487;28;20189;-74
2023/02/06 00:31:08;;;;;;;6.05;2.13;;;16.50;40.30;;;;;;5115312;28;20181;-75
2023/02/06 00:33:37;;;;;;;5.28;1.92;;;16.50;40.30;;;;;;5114736;28;20197;-71
2023/02/06 00:36:05;;;;;;;6.40;2.05;;;16.50;40.30;;;;;;5115299;28;20190;-74
2023/02/06 00:38:32;;;;;;;5.75;2.13;;;16.40;40.20;;;;;;5114975;28;20716;-75
2023/02/06 00:40:59;;;;;;;4.57;1.90;;;16.40;40.20;;;;;;5115167;27;20189;-74
2023/02/06 00:43:27;;;;;;;4.60;2.05;;;16.40;40.10;;;;;;5114924;28;20209;-70
2023/02/06 00:45:55;;;;;;;8.07;2.33;;;16.40;40.20;;;;;;5114443;28;20213;-74
2023/02/06 00:48:22;;;;;;;5.80;2.17;;;16.40;40.10;;;;;;5114311;28;20217;-75
2023/02/06 00:50:52;;;;;;;8.25;1.90;;;16.40;40.10;;;;;;5115089;28;20189;-75
2023/02/06 00:53:19;;;;;;;5.53;2.13;;;16.40;40.20;;;;;;5114690;28;20773;-74
2023/02/06 00:55:46;;;;;;;9.10;2.45;;;16.40;40.10;;;;;;5114539;28;20234;-74
2023/02/06 00:58:13;;;;;;;7.28;2.15;;;16.40;40.10;;;;;;5115011;28;20217;-74
2023/02/06 01:00:40;;;;;;;8.27;2.17;;;16.40;40.10;;;;;;5114913;28;20189;-75
2023/02/06 01:03:07;;;;;;;6.43;1.80;;;16.40;40.10;;;;;;5113830;28;20273;-75
2023/02/06 01:05:34;;;;;;;7.55;1.98;;;16.50;40.20;;;;;;5114671;28;20269;-74
2023/02/06 01:08:02;;;;;;;4.45;1.80;;;16.40;40.10;;;;;;5114579;28;20566;-74
2023/02/06 01:10:29;;;;;;;4.93;2.22;;;16.40;40.10;;;;;;5114612;28;20181;-74
2023/02/06 01:12:56;;;;;;;5.05;1.90;;;16.40;40.10;;;;;;5114398;28;20353;-74
2023/02/06 01:15:23;;;;;;;7.75;2.17;;;16.40;40.10;;;;;;5114559;28;20237;-74
2023/02/06 01:17:51;;;;;;;4.72;2.20;;;16.40;40.10;;;;;;5113774;28;20277;-74
2023/02/06 01:20:18;;;;;;;5.93;2.13;;;16.40;40.10;;;;;;5114465;28;20194;-74
2023/02/06 01:22:45;;;;;;;4.70;1.90;;;16.40;40.10;;;;;;5113955;28;20695;-74
2023/02/06 01:25:13;;;;;;;7.00;1.90;;;16.40;40.10;;;;;;5114215;28;20221;-72
2023/02/06 01:27:41;;;;;;;7.15;2.22;;;16.40;40.10;;;;;;5114572;28;20217;-75
2023/02/06 01:30:09;;;;;;;5.32;1.90;;;16.40;40.10;;;;;;5114302;28;20258;-75
2023/02/06 01:32:37;;;;;;;6.72;2.13;;;16.40;40.10;;;;;;5113187;28;20213;-74
2023/02/06 01:35:06;;;;;;;6.03;1.83;;;16.40;40.10;;;;;;5113797;28;20689;-74
2023/02/06 01:37:34;;;;;;;5.50;1.92;;;16.40;40.10;;;;;;5113878;28;20213;-75
2023/02/06 01:40:01;;;;;;;6.00;2.17;;;16.40;40.10;;;;;;5114014;28;20189;-74
2023/02/06 01:42:29;;;;;;;5.95;2.13;;;16.40;40.10;;;;;;5113799;28;20225;-74
2023/02/06 01:45:27;;;;;;;5.30;1.55;;;16.40;40.10;;;;;;5113587;28;20205;-74
2023/02/06 01:47:58;;;;;;;4.55;2.00;;;16.40;40.10;;;;;;5113285;28;20746;-74
2023/02/06 01:50:25;;;;;;;6.30;2.22;;;16.30;40.00;;;;;;5113962;28;20258;-73
2023/02/06 01:52:52;;;;;;;3.38;1.70;;;16.40;40.10;;;;;;5113878;28;20213;-75
2023/02/06 01:55:19;;;;;;;7.28;2.15;;;16.40;40.10;;;;;;5113726;28;20197;-74
2023/02/06 01:57:48;;;;;;;2.70;1.60;;;16.40;40.10;;;;;;5113840;28;20213;-75
2023/02/06 02:00:16;;;;;;;5.80;2.22;;;16.40;40.10;;;;;;5113778;28;20181;-75
2023/02/06 02:02:47;;;;;;;5.53;1.88;;;16.40;40.10;;;;;;5112935;28;20213;-74
2023/02/06 02:05:16;;;;;;;4.20;1.67;;;16.40;40.10;;;;;;5113446;28;20220;-74
2023/02/06 02:07:49;;;;;;;6.70;2.17;;;16.40;40.10;;;;;;5113320;28;20220;-75
2023/02/06 02:10:17;;;;;;;8.57;2.05;;;16.30;40.60;;;;;;5113661;28;20276;-73
2023/02/06 02:12:44;;;;;;;3.88;1.60;;;16.40;40.10;;;;;;5113227;28;20744;-75
2023/02/06 02:15:12;;;;;;;5.45;1.95;;;16.40;40.10;;;;;;5113103;28;20194;-75
2023/02/06 02:17:51;;;;;;;5.00;1.70;;;16.30;39.90;;;;;;5112356;28;20726;-74
2023/02/06 02:20:44;;;;;;;7.90;2.58;;;16.40;40.10;;;;;;5113083;28;20672;-75
2023/02/06 02:23:28;;;;;;;6.63;2.00;;;16.40;40.10;;;;;;5113051;28;20221;-75
2023/02/06 02:26:24;;;;;;;6.65;2.10;;;16.30;40.00;;;;;;5113136;28;20224;-75
2023/02/06 02:29:38;;;;;;;8.70;2.10;;;16.30;40.00;;;;;;5113398;28;20196;-75
2023/02/06 02:32:51;;;;;;;5.50;1.70;;;16.30;40.00;;;;;;5112535;28;20296;-75
2023/02/06 02:35:29;;;;;;;9.70;2.35;;;16.30;39.90;;;;;;5113086;28;20186;-74
2023/02/06 02:38:07;;;;;;;4.65;1.83;;;16.30;40.00;;;;;;5112874;28;20262;-72
2023/02/06 02:40:42;;;;;;;6.82;2.00;;;16.30;40.00;;;;;;5113062;28;20666;-74
2023/02/06 02:43:18;;;;;;;5.43;1.90;;;16.30;40.10;;;;;;5113301;28;20262;-74
2023/02/06 02:45:49;;;;;;;5.28;1.88;;;16.30;40.10;;;;;;5112948;28;20281;-75
2023/02/06 02:48:22;;;;;;;5.38;1.90;;;16.30;40.00;;;;;;5112163;28;20763;-71
2023/02/06 02:50:52;;;;;;;8.05;2.10;;;16.30;40.00;;;;;;5112936;28;20246;-75
2023/02/06 02:53:19;;;;;;;6.35;2.00;;;16.30;40.00;;;;;;5112812;28;20281;-74
2023/02/06 02:55:47;;;;;;;7.40;2.13;;;16.30;40.10;;;;;;5112949;28;20193;-74
2023/02/06 02:58:18;;;;;;;7.15;1.88;;;16.30;40.10;;;;;;5112782;28;20262;-73
2023/02/06 03:00:49;;;;;;;4.75;1.67;;;16.30;40.10;;;;;;5112788;28;20611;-75
2023/02/06 03:03:20;;;;;;;6.63;1.50;;;16.30;40.00;;;;;;5112420;28;20410;-74
2023/02/06 03:06:00;;;;;;;6.00;1.63;;;16.30;40.10;;;;;;5112711;28;20212;-74
2023/02/06 03:08:34;;;;;;;4.15;1.50;;;16.30;40.00;;;;;;5112969;28;20273;-75
2023/02/06 03:11:10;;;;;;;5.40;1.90;;;16.30;40.10;;;;;;5115886;28;20185;-75
2023/02/06 03:13:39;;;;;;;5.03;1.70;;;16.30;40.10;;;;;;5116943;28;20766;-75
2023/02/06 03:16:12;;;;;;;3.05;1.30;;;16.30;40.20;;;;;;5116825;28;20218;-69
2023/02/06 03:18:46;;;;;;;8.38;2.17;;;16.30;40.10;;;;;;5116108;28;20223;-75
2023/02/06 03:21:19;;;;;;;7.22;2.25;;;16.30;40.10;;;;;;5116607;28;20234;-75
2023/02/06 03:23:49;;;;;;;7.72;1.90;;;16.30;40.00;;;;;;5116564;28;20297;-72
2023/02/06 03:26:19;;;;;;;7.18;2.10;;;16.30;40.10;;;;;;5116206;28;20769;-74
2023/02/06 03:28:51;;;;;;;3.70;2.10;;;16.30;40.10;;;;;;5116703;28;20213;-70
2023/02/06 03:31:24;;;;;;;4.68;1.63;;;16.30;40.10;;;;;;5116259;28;20643;-74
2023/02/06 03:33:56;;;;;;;6.15;1.80;;;16.30;40.10;;;;;;5115971;28;20254;-74
2023/02/06 03:36:25;;;;;;;5.53;1.70;;;16.30;40.10;;;;;;5116121;28;20213;-75
2023/02/06 03:38:52;;;;;;;6.65;1.92;;;16.30;40.10;;;;;;5116731;28;20274;-74
2023/02/06 03:41:25;;;;;;;7.63;1.80;;;16.30;40.10;;;;;;5116443;28;20185;-74
2023/02/06 03:43:53;;;;;;;5.63;1.88;;;16.30;40.10;;;;;;5116387;28;20266;-75
2023/02/06 03:46:22;;;;;;;4.25;1.70;;;16.30;40.10;;;;;;5115802;28;20567;-75
2023/02/06 03:48:54;;;;;;;5.28;1.70;;;16.30;40.30;;;;;;5116288;28;20209;-74
2023/02/06 03:51:26;;;;;;;6.10;2.05;;;16.30;40.00;;;;;;5116159;28;20185;-74
2023/02/06 03:53:55;;;;;;;4.90;1.70;;;16.30;40.10;;;;;;5116166;27;20277;-74
2023/02/06 03:56:28;;;;;;;7.18;2.45;;;16.20;40.00;;;;;;5116053;28;20190;-74
2023/02/06 03:58:55;;;;;;;7.32;2.20;;;16.20;39.90;;;;;;5116297;28;20217;-74
2023/02/06 04:01:23;;;;;;;6.53;2.10;;;16.30;40.00;;;;;;5115457;28;20238;-74
2023/02/06 04:03:51;;;;;;;6.47;2.03;;;16.30;40.10;;;;;;5116062;28;20220;-74
2023/02/06 04:06:18;;;;;;;6.10;2.10;;;16.20;40.00;;;;;;5115514;28;20254;-73
2023/02/06 04:08:47;;;;;;;9.82;2.08;;;16.20;40.00;;;;;;5115802;28;20880;-74
2023/02/06 04:11:14;;;;;;;6.93;1.73;;;16.20;39.90;;;;;;5115646;28;20651;-73
2023/02/06 04:13:41;;;;;;;5.68;1.80;;;16.20;39.90;;;;;;5115917;28;20264;-74
2023/02/06 04:16:08;;;;;;;4.88;2.03;;;16.20;39.90;;;;;;5115632;27;20193;-74
2023/02/06 04:18:35;;;;;;;10.02;2.10;;;16.20;40.00;;;;;;5115087;28;20638;-75
2023/02/06 04:21:06;;;;;;;5.88;1.70;;;16.20;39.90;;;;;;5114372;28;20190;-74
2023/02/06 04:23:33;;;;;;;4.63;1.90;;;16.20;40.00;;;;;;5115338;28;20229;-73
2023/02/06 04:26:02;;;;;;;6.63;1.80;;;16.20;40.00;;;;;;5115377;28;20267;-74
2023/02/06 04:28:29;;;;;;;5.50;1.50;;;16.20;39.90;;;;;;5115314;28;20690;-74
2023/02/06 04:30:56;;;;;;;5.97;1.80;;;16.20;39.90;;;;;;5115511;28;20239;-74
2023/02/06 04:33:23;;;;;;;5.43;1.75;;;16.20;39.90;;;;;;5114932;28;20281;-75
2023/02/06 04:35:51;;;;;;;5.05;2.10;;;16.20;39.90;;;;;;5115017;28;20242;-72
2023/02/06 04:38:18;;;;;;;5.57;1.77;;;16.20;39.90;;;;;;5115142;28;20274;-75
2023/02/06 04:40:45;;;;;;;5.10;1.95;;;16.20;39.90;;;;;;5114919;28;20189;-74
2023/02/06 04:43:13;;;;;;;6.78;1.90;;;16.20;39.90;;;;;;5115361;28;20266;-72
2023/02/06 04:45:41;;;;;;;8.15;2.05;;;16.20;40.00;;;;;;5114693;28;20649;-73
2023/02/06 04:48:08;;;;;;;8.65;2.50;;;16.20;39.90;;;;;;5114703;28;20221;-73
2023/02/06 04:50:35;;;;;;;6.80;2.30;;;16.20;39.90;;;;;;5115008;28;20193;-73
2023/02/06 04:53:03;;;;;;;8.75;1.77;;;16.20;39.90;;;;;;5114970;28;20275;-75
2023/02/06 04:55:30;;;;;;;5.75;1.90;;;16.20;39.90;;;;;;5114944;28;20206;-75
2023/02/06 04:57:57;;;;;;;6.68;2.03;;;16.20;39.90;;;;;;5115025;28;20273;-75
2023/02/06 05:00:25;;;;;;;7.50;1.85;;;16.20;39.90;;;;;;5114639;28;20185;-70
2023/02/06 05:02:52;;;;;;;8.20;2.00;;;16.20;39.90;;;;;;5114301;28;20556;-75
2023/02/06 05:05:19;;;;;;;6.80;1.70;;;16.20;39.90;;;;;;5114614;28;20557;-74
2023/02/06 05:07:46;;;;;;;7.93;1.95;;;16.20;39.90;;;;;;5114791;28;20229;-75
2023/02/06 05:10:13;;;;;;;5.80;1.70;;;16.20;39.90;;;;;;5114692;27;20246;-75
2023/02/06 05:12:41;;;;;;;7.05;2.22;;;16.20;39.90;;;;;;5114760;28;20652;-74
2023/02/06 05:15:09;;;;;;;6.72;2.60;;;16.10;39.80;;;;;;5114540;28;20189;-75
2023/02/06 05:17:38;;;;;;;8.60;2.15;;;16.10;39.80;;;;;;5114180;28;20217;-75
2023/02/06 05:20:06;;;;;;;6.00;2.30;;;16.10;39.80;;;;;;5114489;28;20185;-74
2023/02/06 05:22:33;;;;;;;7.70;2.15;;;16.20;40.00;;;;;;5113899;28;20755;-74
2023/02/06 05:25:00;;;;;;;7.88;1.98;;;16.20;40.00;;;;;;5114461;28;20250;-73
2023/02/06 05:27:27;;;;;;;6.35;1.95;;;16.10;39.80;;;;;;5114503;28;20289;-74
2023/02/06 05:29:54;;;;;;;6.72;1.75;;;16.10;39.80;;;;;;5114015;28;20189;-75
2023/02/06 05:32:21;;;;;;;7.88;2.30;;;16.20;39.90;;;;;;5113066;28;20209;-74
2023/02/06 05:34:50;;;;;;;5.43;1.70;;;16.10;39.80;;;;;;5114285;28;20189;-74
2023/02/06 05:37:17;;;;;;;6.43;1.90;;;16.10;39.80;;;;;;5114141;28;20694;-75
2023/02/06 05:39:44;;;;;;;5.88;1.92;;;16.10;39.80;;;;;;5114111;28;20185;-75
2023/02/06 05:42:11;;;;;;;7.32;2.10;;;16.10;39.80;;;;;;5114066;28;20274;-74
2023/02/06 05:44:38;;;;;;;6.72;2.05;;;16.10;39.80;;;;;;5113964;28;20185;-73
2023/02/06 05:47:05;;;;;;;5.95;1.73;;;16.20;40.00;;;;;;5113258;28;20213;-74
2023/02/06 05:49:32;;;;;;;6.13;1.88;;;16.10;39.90;;;;;;5113626;28;20646;-74
2023/02/06 05:52:01;;;;;;;8.30;2.00;;;16.20;40.00;;;;;;5113830;28;20246;-74
2023/02/06 05:54:28;;;;;;;8.95;2.17;;;16.20;40.00;;;;;;5113510;28;20716;-74
2023/02/06 05:56:56;;;;;;;6.93;1.92;;;16.20;40.00;;;;;;5113767;28;20186;-74
2023/02/06 05:59:24;;;;;;;5.30;1.63;;;16.20;40.00;;;;;;5113793;28;20189;-74
2023/02/06 06:01:51;;;;;;;6.88;1.80;;;16.30;40.10;;;;;;5113080;28;20193;-74
2023/02/06 06:04:18;;;;;;;6.35;2.10;;;16.30;40.10;;;;;;5113744;28;20186;-72
2023/02/06 06:06:45;;;;;;;8.50;2.00;;;16.30;40.10;;;;;;5113580;28;20209;-74
2023/02/06 06:09:14;;;;;;;8.10;1.92;;;16.30;40.10;;;;;;5113909;28;20213;-75
2023/02/06 06:11:41;;;;;;;6.20;2.03;;;16.30;40.10;;;;;;5113482;28;20202;-74
2023/02/06 06:14:08;;;;;;;5.25;1.60;;;16.40;40.20;;;;;;5113366;27;20213;-73
2023/02/06 06:16:35;;;;;;;7.05;1.80;;;16.40;40.20;;;;;;5112786;28;20251;-74
2023/02/06 06:19:02;;;;;;;7.60;2.10;;;16.40;40.20;;;;;;5113299;28;20213;-73
2023/02/06 06:21:29;;;;;;;6.90;2.25;;;16.50;40.30;;;;;;5113441;28;20193;-75
2023/02/06 06:23:56;;;;;;;5.25;1.75;;;16.40;40.20;;;;;;5113179;28;20301;-74
2023/02/06 06:26:25;;;;;;;7.70;1.95;;;16.40;40.30;;;;;;5113381;28;20270;-73
2023/02/06 06:28:52;;;;;;;6.15;2.03;;;16.50;40.40;;;;;;5113192;28;20277;-74
2023/02/06 06:31:19;;;;;;;4.63;1.75;;;16.50;40.40;;;;;;5112272;28;20257;-74
2023/02/06 06:33:46;;;;;;;6.13;1.92;;;16.50;40.40;;;;;;5113046;28;20624;-74
2023/02/06 06:36:14;;;;;;;6.80;1.80;;;16.50;40.40;;;;;;5112907;28;20190;-75
2023/02/06 06:38:41;;;;;;;8.13;1.77;;;16.60;40.50;;;;;;5112981;28;20217;-74
2023/02/06 06:41:08;;;;;;;4.65;1.75;;;16.60;40.50;;;;;;5113093;28;20246;-74
2023/02/06 06:43:38;;;;;;;7.15;2.10;;;16.60;40.50;;;;;;5112632;28;20274;-74
2023/02/06 06:46:05;;;;;;;6.55;1.70;;;16.60;40.50;;;;;;5111903;28;20217;-74
2023/02/06 06:48:33;;;;;;;4.90;1.80;;;16.60;40.50;;;;;;5112880;28;20270;-74
2023/02/06 06:51:00;;;;;;;7.50;1.80;;;16.70;40.60;;;;;;5113163;28;20432;-73
2023/02/06 06:53:27;;;;;;;8.45;1.77;;;16.70;40.60;;;;;;5113052;28;20216;-75
2023/02/06 06:55:54;;;;;;;5.60;1.65;;;16.70;40.60;;;;;;5112803;28;20189;-74
2023/02/06 06:58:21;;;;;;;7.00;1.65;;;16.70;40.60;;;;;;5112991;28;20302;-75
2023/02/06 07:00:53;;;;;;;6.22;2.33;;;16.70;40.60;;;;;;5112412;28;20241;-74
2023/02/06 07:03:20;;;;;;;6.40;1.55;;;16.70;40.60;;;;;;5112961;28;20286;-73
2023/02/06 07:05:47;;;;;;;7.70;1.80;;;16.70;40.60;;;;;;5112708;28;20651;-75
2023/02/06 07:08:14;;;;;;;6.35;2.00;;;16.70;40.60;;;;;;5112812;28;20225;-74
2023/02/06 07:10:42;;;;;;;6.10;1.70;;;16.80;40.60;;;;;;5112516;28;20181;-75
2023/02/06 07:13:09;;;;;;;5.57;1.63;;;16.70;40.50;;;;;;5077115;28;20221;-74
2023/02/06 07:15:36;;;;;;;7.22;2.17;;;16.80;40.60;;;;;;5111820;28;20188;-74
2023/02/06 07:18:05;;;;;;;5.53;1.65;;;16.80;40.90;;;;;;5112742;28;20212;-74
2023/02/06 07:20:33;;;;;;;5.63;1.83;;;16.80;40.50;;;;;;5093647;28;20197;-75
2023/02/06 07:23:00;;;;;;;5.32;1.70;;;16.80;40.60;;;;;;5112423;28;20284;-73
2023/02/06 07:25:27;;;;;;;6.22;1.80;;;16.80;40.50;;;;;;5113075;28;20624;-73
2023/02/06 07:27:55;;;;;;;6.05;1.85;;;16.90;40.60;;;;;;5112709;28;20232;-74
2023/02/06 07:30:22;;;;;;;5.85;1.60;;;16.80;40.50;;;;;;5111759;28;20221;-74
2023/02/06 07:32:50;;;;;;;3.75;1.65;;;16.90;40.60;;;;;;5112293;28;20217;-69
2023/02/06 07:35:18;;;;;;;4.97;1.67;;;16.90;40.60;;;;;;5112523;28;20238;-74
2023/02/06 07:37:46;;;;;;;7.00;1.98;;;16.90;40.60;;;;;;5112219;28;20216;-75
2023/02/06 07:40:13;;;;;;;5.80;2.03;;;16.90;40.60;;;;;;5112466;28;20193;-74
2023/02/06 07:42:40;;;;;;;5.93;1.90;;;16.90;40.60;;;;;;5112428;28;20240;-73
2023/02/06 07:45:09;;;;;;;6.53;2.10;;;17.00;40.60;;;;;;5111411;28;20246;-74
2023/02/06 07:47:36;;;;;;;5.95;2.22;;;17.00;40.60;;;;;;5112385;28;20647;-75
2023/02/06 07:50:03;;;;;;;7.07;2.03;;;17.00;40.60;;;;;;5112490;28;20189;-74
2023/02/06 07:52:32;;;;;;;5.57;1.85;;;17.00;40.60;;;;;;5112346;28;20213;-72
2023/02/06 07:54:59;;;;;;;6.88;2.15;;;17.00;40.60;;;;;;5112383;28;20611;-71
2023/02/06 07:57:26;;;;;;;8.18;2.20;;;17.00;40.60;;;;;;5116077;28;20234;-74
2023/02/06 07:59:53;;;;;;;6.55;1.55;;;17.00;40.60;;;;;;5079775;28;20193;-74
2023/02/06 08:02:20;;;;;;;6.55;1.63;;;17.10;40.60;;;;;;5116253;28;20262;-74
2023/02/06 08:04:47;;;;;;;6.07;1.83;;;17.10;40.60;;;;;;5115762;28;20190;-74
2023/02/06 08:07:17;;;;;;;6.00;1.90;;;17.10;40.60;;;;;;5115869;28;20265;-73
2023/02/06 08:09:45;;;;;;;5.10;2.00;;;17.10;40.60;;;;;;5115947;28;20192;-75
2023/02/06 08:12:12;;;;;;;4.28;1.85;;;17.10;40.60;;;;;;5115426;28;20647;-74
2023/02/06 08:14:39;;;;;;;6.15;2.08;;;17.10;40.60;;;;;;5115327;28;20190;-71
2023/02/06 08:17:07;;;;;;;8.82;2.17;;;17.10;40.60;;;;;;5115797;28;20606;-74
2023/02/06 08:19:34;;;;;;;4.32;2.05;;;17.10;40.60;;;;;;5115785;28;20224;-74
2023/02/06 08:22:01;;;;;;;7.07;1.77;;;17.10;40.60;;;;;;5115314;28;20724;-73
2023/02/06 08:24:28;;;;;;;6.53;2.20;;;17.10;40.60;;;;;;5115239;28;20278;-74
2023/02/06 08:26:57;;;;;;;5.03;1.83;;;17.20;40.60;;;;;;5115464;28;20270;-74
2023/02/06 08:29:25;;;;;;;9.07;2.15;;;17.20;40.60;;;;;;5115356;28;20213;-74
2023/02/06 08:31:52;;;;;;;10.05;2.10;;;17.20;40.60;;;;;;5114799;28;20192;-74
2023/02/06 08:34:19;;;;;;;5.80;1.83;;;17.20;40.60;;;;;;5115482;27;20262;-73
2023/02/06 08:36:47;;;;;;;8.27;2.10;;;17.20;40.60;;;;;;5115038;28;20188;-73
2023/02/06 08:39:14;;;;;;;7.43;1.73;;;17.20;40.60;;;;;;5115185;28;20608;-74
2023/02/06 08:41:43;;;;;;;6.18;1.98;;;17.20;40.60;;;;;;5114991;28;20190;-74
2023/02/06 08:44:14;;;;;;;7.18;1.80;;;17.20;40.60;;;;;;5115483;28;20266;-74
2023/02/06 08:46:42;;;;;;;4.85;1.65;;;17.20;41.30;;;;;;5114475;28;20197;-74
2023/02/06 08:49:13;;;;;;;6.20;1.98;;;17.30;40.70;;;;;;5115101;27;20213;-75
2023/02/06 08:51:40;;;;;;;5.63;1.77;;;17.30;40.70;;;;;;5115005;28;20272;-74
2023/02/06 08:54:11;;;;;;;7.20;2.17;;;17.30;40.70;;;;;;5114635;28;20209;-75
2023/02/06 08:56:39;;;;;;;9.23;2.17;;;17.30;40.70;;;;;;5115007;28;20193;-74
2023/02/06 08:59:06;;;;;;;4.95;1.77;;;17.30;40.60;;;;;;5114757;28;20217;-70
2023/02/06 09:01:36;;;;;;;7.55;2.08;;;17.30;40.70;;;;;;5114232;28;20546;-74
2023/02/06 09:04:06;;;;;;;7.13;1.75;;;17.30;40.60;;;;;;5114839;28;20209;-72
2023/02/06 09:06:34;;;;;;;8.52;2.35;;;17.30;40.70;;;;;;5114491;28;20189;-72
2023/02/06 09:09:01;;;;;;;6.95;1.70;;;17.40;40.60;;;;;;5114479;28;20232;-74
2023/02/06 09:11:29;;;;;;;7.45;1.75;;;17.30;40.50;;;;;;5114383;28;20538;-75
2023/02/06 09:13:57;;;;;;;8.50;2.38;;;17.40;40.60;;;;;;5114912;28;20212;-70
2023/02/06 09:16:26;;;;;;;5.40;1.90;;;17.30;40.50;;;;;;5113973;28;20193;-74
2023/02/06 09:19:00;;;;;;;6.57;1.90;;;17.40;40.60;;;;;;5114379;28;20705;-74
2023/02/06 09:21:28;;;;;;;6.63;2.00;;;17.40;40.60;;;;;;5114643;28;20181;-73
2023/02/06 09:23:58;;;;;;;6.18;2.20;;;17.40;40.60;;;;;;5114131;28;20229;-74
2023/02/06 09:26:27;;;;;;;5.80;1.95;;;17.40;40.60;;;;;;5114196;28;20193;-74
2023/02/06 09:28:55;;;;;;;6.32;1.88;;;17.40;40.60;;;;;;5114292;28;20282;-74
2023/02/06 09:31:22;;;;;;;7.00;1.80;;;17.40;40.50;;;;;;5113634;28;20232;-71
2023/02/06 09:33:49;;;;;;;6.85;2.00;;;17.40;40.50;;;;;;5114448;28;20325;-73
2023/02/06 09:36:20;;;;;;;8.80;2.42;;;17.50;40.70;;;;;;5114003;28;20182;-69
2023/02/06 09:38:49;;;;;;;8.00;2.33;;;17.50;40.60;;;;;;5114274;28;20275;-73
2023/02/06 09:41:19;;;;;;;8.60;2.40;;;17.50;40.60;;;;;;5113871;27;20185;-69
2023/02/06 09:43:58;;;;;;;4.85;1.88;;;17.50;40.60;;;;;;5114182;28;20694;-74
2023/02/06 09:46:30;;;;;;;9.23;2.90;;;17.50;40.60;;;;;;5113483;28;20191;-74
2023/02/06 09:48:59;;;;;;;6.70;2.15;;;17.50;40.60;;;;;;5113769;28;20228;-73
2023/02/06 09:51:39;;;;;;;7.57;2.42;;;17.50;40.60;;;;;;5113920;28;20622;-74
2023/02/06 09:54:13;;;;;;;7.40;2.17;;;17.50;40.60;;;;;;5113963;28;20213;-75
2023/02/06 09:56:50;;;;;;;13.93;2.67;;;17.50;40.50;;;;;;5113680;28;20189;-74
2023/02/06 09:59:23;;;;;;;17.63;3.83;;;17.50;40.20;;;;;;5112954;28;20715;-69
2023/02/06 10:02:03;;;;;;;15.48;3.45;;;17.40;39.90;;;;;;5113376;28;20556;-70
2023/02/06 10:04:40;;;;;;;22.88;3.92;;;17.40;39.90;;;;;;5113691;28;20213;-74
2023/02/06 10:07:21;;;;;;;22.38;4.57;;;17.30;40.00;;;;;;5113602;28;20189;-70
2023/02/06 10:09:54;;;;;;;15.13;3.78;;;17.30;40.10;;;;;;5113391;28;20217;-72
2023/02/06 10:12:27;;;;;;;14.48;3.78;;;17.20;40.10;;;;;;5113456;28;20231;-70
2023/02/06 10:14:59;;;;;;;19.55;3.67;;;17.20;40.20;;;;;;5111624;28;20185;-66
2023/02/06 10:17:29;;;;;;;17.60;3.58;;;17.20;40.20;;;;;;5113107;28;20637;-73
2023/02/06 10:20:01;;;;;;;24.13;4.13;;;17.10;40.20;;;;;;5112716;28;20608;-71
2023/02/06 10:22:37;;;;;;;21.95;4.00;;;17.10;41.70;;;;;;5112932;28;20189;-67
2023/02/06 10:25:19;;;;;;;22.67;3.90;;;17.10;42.50;;;;;;5113330;28;20204;-72
2023/02/06 10:27:50;;;;;;;23.60;3.95;;;17.10;42.50;;;;;;5111940;28;20213;-70
2023/02/06 10:30:21;;;;;;;22.15;3.40;;;17.00;42.30;;;;;;5111261;28;20189;-70
2023/02/06 10:32:58;;;;;;;23.27;4.22;;;17.00;42.00;;;;;;5113056;28;20238;-70
2023/02/06 10:35:33;;;;;;;17.33;4.05;;;16.90;41.60;;;;;;5112804;28;20317;-70
2023/02/06 10:38:33;;;;;;;18.25;3.70;;;16.90;41.50;;;;;;5113101;28;20273;-71
2023/02/06 10:41:06;;;;;;;16.25;3.15;;;16.80;41.30;;;;;;5076662;28;20208;-70
2023/02/06 10:43:41;;;;;;;16.35;3.50;;;16.80;41.40;;;;;;5112760;28;20258;-70
2023/02/06 10:46:27;;;;;;;16.58;3.60;;;16.80;41.50;;;;;;5112915;28;20188;-70
2023/02/06 10:49:00;;;;;;;13.68;3.25;;;16.80;41.50;;;;;;5112982;28;20229;-70
2023/02/06 10:51:31;;;;;;;15.18;3.35;;;16.90;41.60;;;;;;5112679;28;20189;-70
2023/02/06 10:54:02;;;;;;;14.60;3.05;;;16.90;41.60;;;;;;5113030;28;20212;-70
2023/02/06 10:56:36;;;;;;;11.35;2.45;;;16.90;41.60;;;;;;5112900;28;20235;-71
2023/02/06 10:59:10;;;;;;;11.48;3.00;;;17.00;41.70;;;;;;5112178;28;20217;-71
2023/02/06 11:01:39;;;;;;;12.15;2.67;;;17.00;41.60;;;;;;5113821;28;20317;-70
2023/02/06 11:04:15;;;;;;;13.63;3.20;;;17.00;41.60;;;;;;5112352;28;20265;-70
2023/02/06 11:06:45;;;;;;;12.40;3.00;;;17.00;41.60;;;;;;5112488;28;20272;-70
2023/02/06 11:09:14;;;;;;;8.38;2.65;;;17.00;41.50;;;;;;5111570;28;20236;-70
2023/02/06 11:11:46;;;;;;;10.02;3.00;;;17.00;41.50;;;;;;5111580;28;20221;-70
2023/02/06 11:14:18;;;;;;;10.05;2.80;;;17.10;41.60;;;;;;5112337;28;20242;-70
2023/02/06 11:16:47;;;;;;;9.20;2.90;;;17.10;41.50;;;;;;5112559;28;20182;-70
2023/02/06 11:19:17;;;;;;;10.23;2.72;;;17.10;41.50;;;;;;5112758;28;20221;-71
2023/02/06 11:21:51;;;;;;;10.57;3.13;;;17.10;41.50;;;;;;5112686;28;20181;-70
2023/02/06 11:24:21;;;;;;;11.40;3.53;;;17.20;41.50;;;;;;5112242;28;20240;-70
2023/02/06 11:26:52;;;;;;;10.40;2.70;;;17.20;41.50;;;;;;5112836;28;20188;-70
2023/02/06 11:29:21;;;;;;;8.63;2.40;;;17.20;41.50;;;;;;5113259;28;20232;-70
2023/02/06 11:31:52;;;;;;;10.68;2.97;;;17.20;41.50;;;;;;5115473;28;20189;-70
2023/02/06 11:34:24;;;;;;;8.57;2.53;;;17.30;41.60;;;;;;5115464;28;20277;-70
2023/02/06 11:36:54;;;;;;;7.40;2.42;;;17.30;41.50;;;;;;5116543;27;20220;-70
2023/02/06 11:39:26;;;;;;;10.13;2.38;;;17.30;41.60;;;;;;5116648;28;20213;-70
2023/02/06 11:41:58;;;;;;;7.47;2.35;;;17.20;41.40;;;;;;5114905;28;20212;-70
2023/02/06 11:44:27;;;;;;;13.25;3.17;;;17.30;41.50;;;;;;5115728;28;20262;-71
2023/02/06 11:46:55;;;;;;;9.27;2.72;;;17.30;41.50;;;;;;5116009;28;20189;-70
2023/02/06 11:49:25;;;;;;;6.18;2.25;;;17.30;41.40;;;;;;5116045;28;20683;-70
2023/02/06 11:51:54;;;;;;;6.40;2.30;;;17.40;41.50;;;;;;5116716;28;20651;-70
2023/02/06 11:54:27;;;;;;;6.93;2.17;;;17.40;41.50;;;;;;5116292;28;20217;-70
2023/02/06 11:57:03;;;;;;;10.13;2.10;;;17.40;41.50;;;;;;5115829;28;20655;-70
2023/02/06 11:59:33;;;;;;;9.95;2.85;;;17.40;41.40;;;;;;5114198;28;20217;-70
2023/02/06 12:02:04;;;;;;;9.02;2.30;;;17.40;41.40;;;;;;5116021;27;20235;-70
2023/02/06 12:04:36;;;;;;;10.05;2.17;;;17.40;41.40;;;;;;5114567;28;20217;-70
2023/02/06 12:07:11;;;;;;;6.95;2.03;;;17.40;41.40;;;;;;5118229;27;20189;-70
2023/02/06 12:09:40;;;;;;;7.75;2.33;;;17.50;41.40;;;;;;5114493;28;20279;-70
2023/02/06 12:12:19;;;;;;;7.65;2.25;;;17.40;41.30;;;;;;5116134;27;20213;-70
2023/02/06 12:14:51;;;;;;;8.45;2.25;;;17.50;41.40;;;;;;5115305;28;20270;-71
2023/02/06 12:17:26;;;;;;;8.10;2.25;;;17.50;41.40;;;;;;5114524;28;20189;-70
2023/02/06 12:20:01;;;;;;;9.73;1.98;;;17.50;41.40;;;;;;5115292;28;20212;-70
2023/02/06 12:22:34;;;;;;;7.57;2.25;;;17.50;41.30;;;;;;5115668;28;20188;-71
2023/02/06 12:25:04;;;;;;;7.88;2.55;;;17.50;41.30;;;;;;5114063;28;20733;-70
2023/02/06 12:27:36;;;;;;;10.00;1.98;;;17.50;41.30;;;;;;5115632;27;20189;-70
2023/02/06 12:30:08;;;;;;;9.68;2.80;;;17.50;41.30;;;;;;5115035;28;20228;-70
2023/02/06 12:32:42;;;;;;;6.95;2.20;;;17.50;41.20;;;;;;5115408;28;20185;-70
2023/02/06 12:35:20;;;;;;;7.82;2.72;;;17.50;41.20;;;;;;5115227;28;20262;-70
2023/02/06 12:37:52;;;;;;;7.32;2.03;;;17.60;41.30;;;;;;5115499;28;20185;-70
2023/02/06 12:40:37;;;;;;;7.40;2.20;;;17.60;41.30;;;;;;5115507;28;20221;-71
2023/02/06 12:43:09;;;;;;;9.63;2.47;;;17.60;41.20;;;;;;5113750;28;20201;-70
2023/02/06 12:45:45;;;;;;;5.60;1.92;;;17.60;41.20;;;;;;5115644;28;20230;-71
2023/02/06 12:48:19;;;;;;;9.32;2.28;;;17.60;41.20;;;;;;5115089;28;20268;-70
2023/02/06 12:50:50;;;;;;;7.25;2.17;;;17.60;41.20;;;;;;5114826;28;20584;-70
2023/02/06 12:53:25;;;;;;;4.72;1.98;;;17.70;41.30;;;;;;5115072;28;20182;-71
2023/02/06 12:55:59;;;;;;;7.05;2.55;;;17.70;41.30;;;;;;5115333;28;20184;-70
2023/02/06 12:58:30;;;;;;;6.13;2.38;;;17.70;41.20;;;;;;5114379;28;20273;-71
2023/02/06 13:01:18;;;;;;;10.70;2.38;;;17.60;41.10;;;;;;5115014;28;20192;-71